Aviation Digital Data Service (ADDS)

Output produced by METARs form (0953 UTC 17 February 2019)
found at http://aviationweather.gov/metar/data/
 
KTUS 170520Z 1706/1806 25009KT P6SM SCT060 
     FM171200 19005KT P6SM FEW200 
     FM171900 28013G22KT P6SM SCT080 
     FM180100 27009KT P6SM SCT080